RYR31TE LPPT-LIRP
Flight info
| Callsign | RYR31TE |
|---|---|
| Flight time | 2h 30m |
| Altitude | 36000 |
| Route | ORVED DCT UREDI DCT NVS DCT NANDO T257 LASPO M871 PTC N851 ISTER DCT LUNOR DCT NESUL DCT AJO A9 LIBLO L146 ELB |
| Aircraft | B738/M-SDE3FGILRWY/SB1 |
Departure
| Time | 2026-04-28 15:07 |
|---|---|
| Airport | Lisbon Humberto Delgado Airport (LPPT) |
Arrival
| Time | 2026-04-28 17:37 |
|---|---|
| Airport | Pisa International Airport (LIRP) |
| Time | Latitude | Longitude | Altitude | Speed | Heading |
|---|---|---|---|---|---|
| 2026-04-28 14:43 | 38.76461 | -9.13735 | 355 ft | 0 kts | 167° |
| 2026-04-28 14:57 | 38.76465 | -9.13736 | 355 ft | 3 kts | 167° |
| 2026-04-28 14:57 | 38.76483 | -9.13741 | 355 ft | 4 kts | 168° |
| 2026-04-28 14:57 | 38.76516 | -9.13755 | 350 ft | 4 kts | 139° |
| 2026-04-28 14:57 | 38.76530 | -9.13781 | 355 ft | 4 kts | 95° |
| 2026-04-28 14:58 | 38.76529 | -9.13799 | 352 ft | 1 kts | 78° |
| 2026-04-28 14:58 | 38.76529 | -9.13801 | 353 ft | 0 kts | 78° |
| 2026-04-28 15:00 | 38.76530 | -9.13798 | 347 ft | 2 kts | 78° |
| 2026-04-28 15:01 | 38.76538 | -9.13746 | 347 ft | 9 kts | 78° |
| 2026-04-28 15:01 | 38.76571 | -9.13668 | 348 ft | 12 kts | 15° |
| 2026-04-28 15:01 | 38.76636 | -9.13596 | 347 ft | 16 kts | 76° |
| 2026-04-28 15:01 | 38.76664 | -9.13462 | 347 ft | 15 kts | 58° |
| 2026-04-28 15:02 | 38.76749 | -9.13382 | 342 ft | 15 kts | 34° |
| 2026-04-28 15:02 | 38.76846 | -9.13381 | 342 ft | 14 kts | 348° |
| 2026-04-28 15:02 | 38.76941 | -9.13406 | 346 ft | 14 kts | 348° |
| 2026-04-28 15:02 | 38.77045 | -9.13435 | 344 ft | 17 kts | 347° |
| 2026-04-28 15:03 | 38.77168 | -9.13468 | 345 ft | 19 kts | 348° |
| 2026-04-28 15:03 | 38.77310 | -9.13505 | 346 ft | 22 kts | 348° |
| 2026-04-28 15:03 | 38.77465 | -9.13549 | 348 ft | 24 kts | 347° |
| 2026-04-28 15:03 | 38.77601 | -9.13585 | 355 ft | 15 kts | 347° |
| 2026-04-28 15:04 | 38.77705 | -9.13590 | 356 ft | 15 kts | 21° |
| 2026-04-28 15:04 | 38.77804 | -9.13540 | 356 ft | 17 kts | 22° |
| 2026-04-28 15:04 | 38.77936 | -9.13469 | 359 ft | 22 kts | 23° |
| 2026-04-28 15:04 | 38.78075 | -9.13394 | 360 ft | 21 kts | 22° |
| 2026-04-28 15:05 | 38.78209 | -9.13323 | 359 ft | 15 kts | 22° |
| 2026-04-28 15:05 | 38.78304 | -9.13273 | 361 ft | 14 kts | 22° |
| 2026-04-28 15:05 | 38.78392 | -9.13228 | 362 ft | 13 kts | 18° |
| 2026-04-28 15:05 | 38.78481 | -9.13231 | 362 ft | 13 kts | 344° |
| 2026-04-28 15:06 | 38.78542 | -9.13304 | 359 ft | 12 kts | 291° |
| 2026-04-28 15:06 | 38.78540 | -9.13373 | 362 ft | 8 kts | 216° |
| 2026-04-28 15:06 | 38.78418 | -9.13439 | 364 ft | 46 kts | 202° |
| 2026-04-28 15:06 | 38.77896 | -9.13720 | 363 ft | 115 kts | 202° |
| 2026-04-28 15:07 | 38.76973 | -9.14209 | 421 ft | 165 kts | 203° |
| 2026-04-28 15:07 | 38.75895 | -9.14819 | 1084 ft | 169 kts | 204° |
| 2026-04-28 15:07 | 38.74845 | -9.15383 | 2022 ft | 163 kts | 202° |
| 2026-04-28 15:07 | 38.73765 | -9.15947 | 2617 ft | 171 kts | 201° |
| 2026-04-28 15:08 | 38.72647 | -9.16523 | 3246 ft | 176 kts | 202° |
| 2026-04-28 15:08 | 38.71481 | -9.17119 | 3771 ft | 190 kts | 202° |
| 2026-04-28 15:08 | 38.70161 | -9.17793 | 4017 ft | 217 kts | 202° |
| 2026-04-28 15:08 | 38.68684 | -9.18544 | 4183 ft | 240 kts | 202° |
| 2026-04-28 15:09 | 38.67069 | -9.19353 | 4404 ft | 261 kts | 199° |
| 2026-04-28 15:09 | 38.65206 | -9.19597 | 4773 ft | 280 kts | 171° |
| 2026-04-28 15:09 | 38.63449 | -9.18584 | 5541 ft | 280 kts | 136° |
| 2026-04-28 15:09 | 38.62670 | -9.17300 | 6175 ft | 275 kts | 116° |
| 2026-04-28 15:10 | 38.61660 | -9.14287 | 7207 ft | 278 kts | 112° |
| 2026-04-28 15:10 | 38.61167 | -9.11889 | 7884 ft | 283 kts | 89° |
| 2026-04-28 15:10 | 38.61702 | -9.09482 | 8619 ft | 286 kts | 57° |
| 2026-04-28 15:10 | 38.62863 | -9.07430 | 9290 ft | 292 kts | 54° |
| 2026-04-28 15:11 | 38.64087 | -9.05317 | 9948 ft | 297 kts | 54° |
| 2026-04-28 15:11 | 38.65348 | -9.03108 | 10328 ft | 314 kts | 54° |
| 2026-04-28 15:11 | 38.66668 | -9.00754 | 10498 ft | 336 kts | 55° |
| 2026-04-28 15:11 | 38.68016 | -8.98312 | 11014 ft | 343 kts | 56° |
| 2026-04-28 15:12 | 38.69396 | -8.95789 | 11618 ft | 349 kts | 56° |
| 2026-04-28 15:12 | 38.70791 | -8.93223 | 12293 ft | 353 kts | 56° |
| 2026-04-28 15:12 | 38.72191 | -8.90642 | 13084 ft | 354 kts | 56° |
| 2026-04-28 15:12 | 38.73609 | -8.88021 | 13734 ft | 359 kts | 56° |
| 2026-04-28 15:13 | 38.75043 | -8.85368 | 14366 ft | 365 kts | 56° |
| 2026-04-28 15:13 | 38.76492 | -8.82671 | 14967 ft | 370 kts | 56° |
| 2026-04-28 15:13 | 38.77958 | -8.79935 | 15639 ft | 374 kts | 57° |
| 2026-04-28 15:13 | 38.79436 | -8.77170 | 16327 ft | 377 kts | 57° |
| 2026-04-28 15:14 | 38.80920 | -8.74393 | 17060 ft | 379 kts | 57° |
| 2026-04-28 15:14 | 38.82418 | -8.71587 | 17706 ft | 383 kts | 57° |
| 2026-04-28 15:14 | 38.83939 | -8.68736 | 18221 ft | 391 kts | 57° |
| 2026-04-28 15:14 | 38.85480 | -8.65845 | 18779 ft | 394 kts | 57° |
| 2026-04-28 15:15 | 38.87029 | -8.62939 | 19387 ft | 396 kts | 57° |
| 2026-04-28 15:15 | 38.88081 | -8.60962 | 19776 ft | 398 kts | 57° |
| 2026-04-28 15:15 | 38.90157 | -8.57059 | 20509 ft | 402 kts | 57° |
| 2026-04-28 15:15 | 38.91741 | -8.54079 | 21067 ft | 405 kts | 57° |
| 2026-04-28 15:16 | 38.93336 | -8.51076 | 21615 ft | 409 kts | 58° |
| 2026-04-28 15:16 | 38.94942 | -8.48048 | 22151 ft | 412 kts | 58° |
| 2026-04-28 15:16 | 38.96560 | -8.44995 | 22673 ft | 415 kts | 58° |
| 2026-04-28 15:16 | 38.98188 | -8.41920 | 23198 ft | 418 kts | 58° |
| 2026-04-28 15:17 | 38.99831 | -8.38812 | 23661 ft | 421 kts | 58° |
| 2026-04-28 15:17 | 39.00945 | -8.36704 | 23952 ft | 423 kts | 58° |
| 2026-04-28 15:17 | 39.02583 | -8.33601 | 24357 ft | 426 kts | 58° |
| 2026-04-28 15:17 | 39.04253 | -8.30437 | 24779 ft | 429 kts | 58° |
| 2026-04-28 15:18 | 39.05932 | -8.27250 | 25211 ft | 431 kts | 58° |
| 2026-04-28 15:18 | 39.07621 | -8.24044 | 25618 ft | 434 kts | 58° |
| 2026-04-28 15:18 | 39.09320 | -8.20814 | 26003 ft | 437 kts | 58° |
| 2026-04-28 15:18 | 39.11030 | -8.17557 | 26403 ft | 440 kts | 58° |
| 2026-04-28 15:19 | 39.12747 | -8.14287 | 26790 ft | 442 kts | 58° |
| 2026-04-28 15:19 | 39.14475 | -8.10990 | 27174 ft | 445 kts | 58° |
| 2026-04-28 15:19 | 39.16213 | -8.07673 | 27531 ft | 448 kts | 58° |
| 2026-04-28 15:19 | 39.17959 | -8.04335 | 27904 ft | 451 kts | 58° |
| 2026-04-28 15:20 | 39.19717 | -8.00973 | 28258 ft | 453 kts | 58° |
| 2026-04-28 15:20 | 39.21481 | -7.97596 | 28618 ft | 456 kts | 58° |
| 2026-04-28 15:20 | 39.23254 | -7.94195 | 28973 ft | 458 kts | 58° |
| 2026-04-28 15:20 | 39.25037 | -7.90774 | 29304 ft | 461 kts | 58° |
| 2026-04-28 15:21 | 39.26829 | -7.87330 | 29639 ft | 463 kts | 58° |
| 2026-04-28 15:21 | 39.28626 | -7.83875 | 29953 ft | 465 kts | 58° |
| 2026-04-28 15:21 | 39.30434 | -7.80393 | 30233 ft | 467 kts | 58° |
| 2026-04-28 15:21 | 39.32240 | -7.76912 | 30603 ft | 466 kts | 58° |
| 2026-04-28 15:22 | 39.34039 | -7.73441 | 31033 ft | 464 kts | 58° |
| 2026-04-28 15:22 | 39.35830 | -7.69984 | 31442 ft | 462 kts | 58° |
| 2026-04-28 15:22 | 39.37614 | -7.66533 | 31811 ft | 461 kts | 59° |
| 2026-04-28 15:22 | 39.39284 | -7.63003 | 32163 ft | 459 kts | 64° |
| 2026-04-28 15:23 | 39.40747 | -7.59350 | 32529 ft | 457 kts | 66° |
| 2026-04-28 15:23 | 39.42138 | -7.55667 | 32883 ft | 456 kts | 67° |
| 2026-04-28 15:23 | 39.43510 | -7.51973 | 33214 ft | 455 kts | 67° |
| 2026-04-28 15:23 | 39.44880 | -7.48292 | 33566 ft | 454 kts | 67° |
| 2026-04-28 15:24 | 39.46261 | -7.44619 | 33921 ft | 453 kts | 67° |
| 2026-04-28 15:24 | 39.47648 | -7.40964 | 34205 ft | 452 kts | 67° |
| 2026-04-28 15:24 | 39.49041 | -7.37310 | 34458 ft | 452 kts | 67° |
| 2026-04-28 15:24 | 39.50435 | -7.33666 | 34712 ft | 452 kts | 66° |
| 2026-04-28 15:25 | 39.51833 | -7.30016 | 34967 ft | 452 kts | 67° |
| 2026-04-28 15:25 | 39.53226 | -7.26374 | 35234 ft | 451 kts | 66° |
| 2026-04-28 15:25 | 39.54618 | -7.22731 | 35499 ft | 450 kts | 66° |
| 2026-04-28 15:25 | 39.56005 | -7.19094 | 35700 ft | 451 kts | 66° |
| 2026-04-28 15:26 | 39.57397 | -7.15439 | 35829 ft | 453 kts | 66° |
| 2026-04-28 15:26 | 39.60180 | -7.08118 | 35848 ft | 452 kts | 67° |
| 2026-04-28 15:27 | 39.62952 | -7.00805 | 35849 ft | 452 kts | 67° |
| 2026-04-28 15:27 | 39.65723 | -6.93479 | 35854 ft | 452 kts | 67° |
| 2026-04-28 15:28 | 39.68490 | -6.86145 | 35852 ft | 452 kts | 67° |
| 2026-04-28 15:28 | 39.71237 | -6.78844 | 35841 ft | 453 kts | 67° |
| 2026-04-28 15:29 | 39.74000 | -6.71483 | 35847 ft | 454 kts | 67° |
| 2026-04-28 15:29 | 39.76764 | -6.64103 | 35845 ft | 454 kts | 67° |
| 2026-04-28 15:30 | 39.79525 | -6.56713 | 35846 ft | 455 kts | 67° |
| 2026-04-28 15:30 | 39.82288 | -6.49295 | 35846 ft | 456 kts | 67° |
| 2026-04-28 15:31 | 39.85050 | -6.41865 | 35833 ft | 457 kts | 67° |
| 2026-04-28 15:31 | 39.87430 | -6.34237 | 35845 ft | 454 kts | 75° |
| 2026-04-28 15:32 | 39.89316 | -6.26379 | 35851 ft | 455 kts | 76° |
| 2026-04-28 15:32 | 39.91182 | -6.18482 | 35842 ft | 457 kts | 76° |
| 2026-04-28 15:33 | 39.93092 | -6.10582 | 35832 ft | 458 kts | 75° |
| 2026-04-28 15:33 | 39.95024 | -6.02684 | 35829 ft | 458 kts | 75° |
| 2026-04-28 15:34 | 39.96958 | -5.94780 | 35843 ft | 457 kts | 75° |
| 2026-04-28 15:34 | 39.98871 | -5.86927 | 35848 ft | 458 kts | 75° |
| 2026-04-28 15:35 | 40.00805 | -5.78959 | 35849 ft | 458 kts | 75° |
| 2026-04-28 15:35 | 40.03663 | -5.67125 | 35842 ft | 458 kts | 75° |
| 2026-04-28 15:36 | 40.05571 | -5.59196 | 35852 ft | 458 kts | 75° |
| 2026-04-28 15:36 | 40.07474 | -5.51260 | 35854 ft | 458 kts | 75° |
| 2026-04-28 15:37 | 40.09372 | -5.43317 | 35869 ft | 458 kts | 75° |
| 2026-04-28 15:37 | 40.11266 | -5.35364 | 35863 ft | 459 kts | 75° |
| 2026-04-28 15:38 | 40.13156 | -5.27398 | 35869 ft | 459 kts | 75° |
| 2026-04-28 15:38 | 40.15043 | -5.19417 | 35872 ft | 460 kts | 75° |
| 2026-04-28 15:39 | 40.16929 | -5.11415 | 35866 ft | 461 kts | 75° |
| 2026-04-28 15:39 | 40.18812 | -5.03397 | 35870 ft | 461 kts | 75° |
| 2026-04-28 15:40 | 40.20689 | -4.95378 | 35880 ft | 461 kts | 75° |
| 2026-04-28 15:40 | 40.22563 | -4.87341 | 35857 ft | 462 kts | 75° |
| 2026-04-28 15:41 | 40.24430 | -4.79308 | 35873 ft | 462 kts | 75° |
| 2026-04-28 15:41 | 40.26294 | -4.71258 | 35862 ft | 462 kts | 75° |
| 2026-04-28 15:42 | 40.28150 | -4.63217 | 35862 ft | 462 kts | 75° |
| 2026-04-28 15:42 | 40.30001 | -4.55165 | 35861 ft | 462 kts | 75° |
| 2026-04-28 15:43 | 40.31846 | -4.47111 | 35864 ft | 461 kts | 75° |
| 2026-04-28 15:43 | 40.33682 | -4.39072 | 35874 ft | 461 kts | 75° |
| 2026-04-28 15:44 | 40.35509 | -4.31034 | 35865 ft | 460 kts | 76° |
| 2026-04-28 15:44 | 40.36155 | -4.26934 | 35861 ft | 457 kts | 87° |
| 2026-04-28 15:44 | 40.36273 | -4.22786 | 35873 ft | 454 kts | 96° |
| 2026-04-28 15:45 | 40.35247 | -4.14703 | 35877 ft | 449 kts | 107° |
| 2026-04-28 15:45 | 40.33802 | -4.06808 | 35873 ft | 449 kts | 107° |
| 2026-04-28 15:46 | 40.32353 | -3.98838 | 35866 ft | 450 kts | 107° |
| 2026-04-28 15:46 | 40.30931 | -3.90852 | 35865 ft | 450 kts | 107° |
| 2026-04-28 15:47 | 40.29516 | -3.82851 | 35865 ft | 451 kts | 107° |
| 2026-04-28 15:47 | 40.28095 | -3.74844 | 35857 ft | 452 kts | 106° |
| 2026-04-28 15:48 | 40.26668 | -3.66839 | 35857 ft | 452 kts | 107° |
| 2026-04-28 15:48 | 40.25230 | -3.58816 | 35862 ft | 452 kts | 107° |
| 2026-04-28 15:49 | 40.23788 | -3.50799 | 35865 ft | 453 kts | 107° |
| 2026-04-28 15:49 | 40.22339 | -3.42785 | 35866 ft | 453 kts | 107° |
| 2026-04-28 15:50 | 40.20882 | -3.34754 | 35863 ft | 454 kts | 107° |
| 2026-04-28 15:50 | 40.19420 | -3.26730 | 35862 ft | 453 kts | 107° |
| 2026-04-28 15:51 | 40.17954 | -3.18718 | 35870 ft | 453 kts | 107° |
| 2026-04-28 15:51 | 40.16483 | -3.10715 | 35878 ft | 453 kts | 107° |
| 2026-04-28 15:52 | 40.15015 | -3.02762 | 35880 ft | 452 kts | 106° |
| 2026-04-28 15:52 | 40.13536 | -2.94784 | 35896 ft | 452 kts | 106° |
| 2026-04-28 15:53 | 40.12053 | -2.86813 | 35895 ft | 451 kts | 106° |
| 2026-04-28 15:53 | 40.10565 | -2.78847 | 35899 ft | 451 kts | 107° |
| 2026-04-28 15:54 | 40.09073 | -2.70894 | 35900 ft | 451 kts | 107° |
| 2026-04-28 15:54 | 40.07577 | -2.62954 | 35908 ft | 450 kts | 106° |
| 2026-04-28 15:55 | 40.06077 | -2.55021 | 35909 ft | 450 kts | 106° |
| 2026-04-28 15:55 | 40.04572 | -2.47100 | 35918 ft | 449 kts | 107° |
| 2026-04-28 15:56 | 40.03064 | -2.39189 | 35918 ft | 449 kts | 107° |
| 2026-04-28 15:56 | 40.01550 | -2.31275 | 35917 ft | 450 kts | 107° |
| 2026-04-28 15:57 | 40.00030 | -2.23363 | 35934 ft | 450 kts | 106° |
| 2026-04-28 15:57 | 39.98195 | -2.15606 | 35918 ft | 445 kts | 119° |
| 2026-04-28 15:58 | 39.95225 | -2.08559 | 35939 ft | 443 kts | 122° |
| 2026-04-28 15:58 | 39.92183 | -2.01576 | 35937 ft | 443 kts | 122° |
| 2026-04-28 15:59 | 39.89678 | -1.95748 | 35948 ft | 444 kts | 122° |
| 2026-04-28 15:59 | 39.86178 | -1.87537 | 35951 ft | 444 kts | 121° |
| 2026-04-28 16:00 | 39.83182 | -1.80511 | 35958 ft | 444 kts | 121° |
| 2026-04-28 16:00 | 39.80185 | -1.73501 | 35969 ft | 444 kts | 121° |
| 2026-04-28 16:01 | 39.77183 | -1.66496 | 35981 ft | 443 kts | 121° |
| 2026-04-28 16:01 | 39.74200 | -1.59549 | 35962 ft | 443 kts | 121° |
| 2026-04-28 16:02 | 39.71197 | -1.52577 | 35941 ft | 442 kts | 121° |
| 2026-04-28 16:02 | 39.68173 | -1.45576 | 35920 ft | 441 kts | 121° |
| 2026-04-28 16:03 | 39.65201 | -1.38706 | 35909 ft | 439 kts | 121° |
| 2026-04-28 16:03 | 39.62217 | -1.31822 | 35882 ft | 437 kts | 121° |
| 2026-04-28 16:04 | 39.59240 | -1.24969 | 35890 ft | 435 kts | 121° |
| 2026-04-28 16:04 | 39.56753 | -1.19252 | 35899 ft | 434 kts | 121° |
| 2026-04-28 16:05 | 39.53307 | -1.11345 | 35893 ft | 433 kts | 121° |
| 2026-04-28 16:05 | 39.50353 | -1.04553 | 35925 ft | 433 kts | 121° |
| 2026-04-28 16:06 | 39.47896 | -0.98908 | 35944 ft | 433 kts | 121° |
| 2026-04-28 16:06 | 39.44931 | -0.92117 | 35971 ft | 434 kts | 121° |
| 2026-04-28 16:07 | 39.41963 | -0.85323 | 35965 ft | 434 kts | 121° |
| 2026-04-28 16:08 | 39.37483 | -0.75139 | 35968 ft | 435 kts | 121° |
| 2026-04-28 16:08 | 39.34482 | -0.68352 | 35962 ft | 435 kts | 121° |
| 2026-04-28 16:09 | 39.30016 | -0.58167 | 35928 ft | 434 kts | 116° |
| 2026-04-28 16:09 | 39.28994 | -0.54503 | 35963 ft | 435 kts | 104° |
| 2026-04-28 16:10 | 39.28576 | -0.46729 | 35974 ft | 436 kts | 87° |
| 2026-04-28 16:10 | 39.29286 | -0.35041 | 35959 ft | 435 kts | 86° |
| 2026-04-28 16:11 | 39.30146 | -0.19494 | 35954 ft | 433 kts | 88° |
| 2026-04-28 16:12 | 39.30738 | -0.07850 | 35965 ft | 433 kts | 87° |
| 2026-04-28 16:13 | 39.31319 | 0.03750 | 35962 ft | 434 kts | 87° |
| 2026-04-28 16:14 | 39.32079 | 0.19327 | 35957 ft | 435 kts | 87° |
| 2026-04-28 16:15 | 39.32822 | 0.34960 | 35956 ft | 437 kts | 87° |
| 2026-04-28 16:15 | 39.33187 | 0.42792 | 35958 ft | 437 kts | 88° |
| 2026-04-28 16:16 | 39.33721 | 0.54535 | 35948 ft | 436 kts | 88° |
| 2026-04-28 16:17 | 39.34243 | 0.66261 | 35946 ft | 436 kts | 88° |
| 2026-04-28 16:17 | 39.34584 | 0.74069 | 35947 ft | 435 kts | 88° |
| 2026-04-28 16:18 | 39.34920 | 0.81866 | 35940 ft | 434 kts | 88° |
| 2026-04-28 16:18 | 39.35250 | 0.89660 | 35947 ft | 434 kts | 88° |
| 2026-04-28 16:19 | 39.35575 | 0.97441 | 35942 ft | 434 kts | 88° |
| 2026-04-28 16:19 | 39.35894 | 1.05230 | 35943 ft | 434 kts | 88° |
| 2026-04-28 16:20 | 39.36209 | 1.13018 | 35957 ft | 434 kts | 88° |
| 2026-04-28 16:20 | 39.36518 | 1.20807 | 35957 ft | 434 kts | 88° |
| 2026-04-28 16:21 | 39.36822 | 1.28597 | 35972 ft | 434 kts | 88° |
| 2026-04-28 16:21 | 39.37122 | 1.36393 | 35973 ft | 434 kts | 88° |
| 2026-04-28 16:22 | 39.37416 | 1.44195 | 35970 ft | 435 kts | 88° |
| 2026-04-28 16:22 | 39.37700 | 1.52002 | 35970 ft | 435 kts | 88° |
| 2026-04-28 16:23 | 39.37977 | 1.59756 | 35964 ft | 435 kts | 89° |
| 2026-04-28 16:23 | 39.38251 | 1.67566 | 35965 ft | 435 kts | 89° |
| 2026-04-28 16:24 | 39.38521 | 1.75381 | 35954 ft | 435 kts | 89° |
| 2026-04-28 16:24 | 39.38786 | 1.83194 | 35954 ft | 435 kts | 89° |
| 2026-04-28 16:25 | 39.39045 | 1.91011 | 35936 ft | 435 kts | 89° |
| 2026-04-28 16:25 | 39.39299 | 1.98827 | 35933 ft | 435 kts | 89° |
| 2026-04-28 16:26 | 39.39548 | 2.06657 | 35935 ft | 436 kts | 89° |
| 2026-04-28 16:26 | 39.39792 | 2.14482 | 35940 ft | 436 kts | 89° |
| 2026-04-28 16:27 | 39.40031 | 2.22315 | 35940 ft | 436 kts | 89° |
| 2026-04-28 16:28 | 39.40380 | 2.34065 | 35949 ft | 436 kts | 89° |
| 2026-04-28 16:28 | 39.40607 | 2.41902 | 35954 ft | 436 kts | 89° |
| 2026-04-28 16:29 | 39.40934 | 2.53653 | 35961 ft | 436 kts | 89° |
| 2026-04-28 16:30 | 39.41253 | 2.65403 | 35963 ft | 436 kts | 89° |
| 2026-04-28 16:30 | 39.41459 | 2.73232 | 35961 ft | 436 kts | 91° |
| 2026-04-28 16:31 | 39.41660 | 2.81060 | 35968 ft | 435 kts | 90° |
| 2026-04-28 16:31 | 39.41855 | 2.88888 | 35957 ft | 435 kts | 91° |
| 2026-04-28 16:32 | 39.42043 | 2.96715 | 35952 ft | 435 kts | 90° |
| 2026-04-28 16:32 | 39.42316 | 3.08450 | 35957 ft | 435 kts | 90° |
| 2026-04-28 16:33 | 39.42466 | 3.14957 | 35949 ft | 435 kts | 90° |
| 2026-04-28 16:33 | 39.42959 | 3.24079 | 35946 ft | 437 kts | 78° |
| 2026-04-28 16:34 | 39.45180 | 3.31388 | 35958 ft | 439 kts | 61° |
| 2026-04-28 16:34 | 39.48340 | 3.38158 | 35954 ft | 440 kts | 59° |
| 2026-04-28 16:35 | 39.51528 | 3.44911 | 35960 ft | 439 kts | 60° |
| 2026-04-28 16:35 | 39.54674 | 3.51690 | 35961 ft | 439 kts | 60° |
| 2026-04-28 16:36 | 39.57796 | 3.58489 | 35967 ft | 439 kts | 60° |
| 2026-04-28 16:36 | 39.60911 | 3.65304 | 35965 ft | 439 kts | 60° |
| 2026-04-28 16:37 | 39.63999 | 3.72073 | 35971 ft | 439 kts | 60° |
| 2026-04-28 16:38 | 39.68663 | 3.82318 | 35959 ft | 440 kts | 60° |
| 2026-04-28 16:38 | 39.71768 | 3.89158 | 35974 ft | 440 kts | 60° |
| 2026-04-28 16:39 | 39.74872 | 3.96011 | 35980 ft | 440 kts | 60° |
| 2026-04-28 16:39 | 39.77973 | 4.02873 | 35990 ft | 440 kts | 60° |
| 2026-04-28 16:40 | 39.81073 | 4.09748 | 35993 ft | 441 kts | 60° |
| 2026-04-28 16:40 | 39.84173 | 4.16636 | 35995 ft | 441 kts | 60° |
| 2026-04-28 16:41 | 39.87274 | 4.23542 | 35987 ft | 442 kts | 60° |
| 2026-04-28 16:41 | 39.90374 | 4.30460 | 36001 ft | 442 kts | 60° |
| 2026-04-28 16:42 | 39.93473 | 4.37388 | 35992 ft | 443 kts | 60° |
| 2026-04-28 16:42 | 39.96569 | 4.44328 | 35993 ft | 443 kts | 60° |
| 2026-04-28 16:43 | 39.99646 | 4.51241 | 35985 ft | 443 kts | 60° |
| 2026-04-28 16:43 | 40.02756 | 4.58244 | 35971 ft | 443 kts | 60° |
| 2026-04-28 16:44 | 40.05823 | 4.65165 | 35988 ft | 443 kts | 60° |
| 2026-04-28 16:44 | 40.08909 | 4.72134 | 35984 ft | 443 kts | 60° |
| 2026-04-28 16:45 | 40.11992 | 4.79100 | 35988 ft | 443 kts | 60° |
| 2026-04-28 16:45 | 40.15068 | 4.86070 | 35987 ft | 443 kts | 60° |
| 2026-04-28 16:46 | 40.18141 | 4.93047 | 35986 ft | 443 kts | 60° |
| 2026-04-28 16:46 | 40.21207 | 5.00027 | 35981 ft | 442 kts | 61° |
| 2026-04-28 16:47 | 40.24267 | 5.07009 | 35990 ft | 442 kts | 61° |
| 2026-04-28 16:47 | 40.27324 | 5.14001 | 35990 ft | 442 kts | 61° |
| 2026-04-28 16:48 | 40.30377 | 5.20998 | 35994 ft | 442 kts | 61° |
| 2026-04-28 16:48 | 40.33426 | 5.28003 | 35991 ft | 443 kts | 61° |
| 2026-04-28 16:49 | 40.36474 | 5.35021 | 35983 ft | 443 kts | 61° |
| 2026-04-28 16:49 | 40.39517 | 5.42043 | 35991 ft | 443 kts | 61° |
| 2026-04-28 16:50 | 40.42561 | 5.49076 | 35994 ft | 443 kts | 61° |
| 2026-04-28 16:50 | 40.45603 | 5.56120 | 35994 ft | 444 kts | 61° |
| 2026-04-28 16:51 | 40.48642 | 5.63175 | 35995 ft | 444 kts | 61° |
| 2026-04-28 16:51 | 40.51677 | 5.70239 | 35994 ft | 444 kts | 61° |
| 2026-04-28 16:52 | 40.54711 | 5.77317 | 35992 ft | 444 kts | 61° |
| 2026-04-28 16:52 | 40.57741 | 5.84402 | 35995 ft | 444 kts | 61° |
| 2026-04-28 16:53 | 40.60257 | 5.90296 | 35994 ft | 445 kts | 61° |
| 2026-04-28 16:53 | 40.63279 | 5.97394 | 36000 ft | 445 kts | 61° |
| 2026-04-28 16:54 | 40.66301 | 6.04507 | 35998 ft | 445 kts | 61° |
| 2026-04-28 16:54 | 40.69317 | 6.11622 | 35995 ft | 445 kts | 61° |
| 2026-04-28 16:55 | 40.72328 | 6.18742 | 35999 ft | 445 kts | 61° |
| 2026-04-28 16:55 | 40.75333 | 6.25865 | 36007 ft | 445 kts | 61° |
| 2026-04-28 16:56 | 40.78334 | 6.32996 | 35999 ft | 445 kts | 61° |
| 2026-04-28 16:56 | 40.81332 | 6.40137 | 36000 ft | 445 kts | 61° |
| 2026-04-28 16:57 | 40.84327 | 6.47286 | 35996 ft | 445 kts | 61° |
| 2026-04-28 16:57 | 40.87313 | 6.54433 | 36002 ft | 444 kts | 61° |
| 2026-04-28 16:58 | 40.90297 | 6.61590 | 36006 ft | 444 kts | 61° |
| 2026-04-28 16:58 | 40.93275 | 6.68750 | 36005 ft | 444 kts | 61° |
| 2026-04-28 16:59 | 40.96248 | 6.75917 | 36005 ft | 445 kts | 61° |
| 2026-04-28 16:59 | 40.99199 | 6.83048 | 36006 ft | 445 kts | 61° |
| 2026-04-28 17:00 | 41.02189 | 6.90289 | 36003 ft | 445 kts | 61° |
| 2026-04-28 17:00 | 41.05131 | 6.97431 | 36012 ft | 445 kts | 61° |
| 2026-04-28 17:01 | 41.08092 | 7.04634 | 36012 ft | 445 kts | 61° |
| 2026-04-28 17:01 | 41.11055 | 7.11853 | 36008 ft | 446 kts | 61° |
| 2026-04-28 17:02 | 41.14015 | 7.19078 | 36009 ft | 446 kts | 61° |
| 2026-04-28 17:02 | 41.16972 | 7.26314 | 36009 ft | 446 kts | 61° |
| 2026-04-28 17:03 | 41.21400 | 7.37188 | 36011 ft | 446 kts | 61° |
| 2026-04-28 17:03 | 41.24346 | 7.44444 | 36011 ft | 446 kts | 61° |
| 2026-04-28 17:04 | 41.28761 | 7.55350 | 36013 ft | 447 kts | 61° |
| 2026-04-28 17:05 | 41.33164 | 7.66267 | 36012 ft | 447 kts | 61° |
| 2026-04-28 17:06 | 41.37559 | 7.77207 | 36014 ft | 447 kts | 61° |
| 2026-04-28 17:06 | 41.41949 | 7.88171 | 36014 ft | 447 kts | 61° |
| 2026-04-28 17:07 | 41.44868 | 7.95487 | 36014 ft | 447 kts | 61° |
| 2026-04-28 17:07 | 41.47785 | 8.02815 | 36009 ft | 447 kts | 61° |
| 2026-04-28 17:08 | 41.50699 | 8.10152 | 36022 ft | 448 kts | 61° |
| 2026-04-28 17:08 | 41.53609 | 8.17500 | 36016 ft | 448 kts | 61° |
| 2026-04-28 17:09 | 41.56500 | 8.24816 | 36016 ft | 448 kts | 61° |
| 2026-04-28 17:09 | 41.59404 | 8.32186 | 36016 ft | 449 kts | 61° |
| 2026-04-28 17:10 | 41.62931 | 8.38972 | 36028 ft | 443 kts | 41° |
| 2026-04-28 17:10 | 41.67800 | 8.43949 | 36042 ft | 440 kts | 30° |
| 2026-04-28 17:11 | 41.72996 | 8.48286 | 36021 ft | 440 kts | 29° |
| 2026-04-28 17:11 | 41.78181 | 8.52667 | 36008 ft | 441 kts | 30° |
| 2026-04-28 17:12 | 41.83339 | 8.57143 | 36005 ft | 442 kts | 30° |
| 2026-04-28 17:12 | 41.88473 | 8.61676 | 36006 ft | 443 kts | 32° |
| 2026-04-28 17:13 | 41.93493 | 8.66475 | 36003 ft | 443 kts | 33° |
| 2026-04-28 17:13 | 41.98501 | 8.71323 | 35994 ft | 444 kts | 33° |
| 2026-04-28 17:14 | 42.03526 | 8.76150 | 35704 ft | 448 kts | 32° |
| 2026-04-28 17:14 | 42.06074 | 8.78589 | 35159 ft | 449 kts | 32° |
| 2026-04-28 17:14 | 42.08618 | 8.81027 | 34565 ft | 450 kts | 33° |
| 2026-04-28 17:15 | 42.11167 | 8.83472 | 33931 ft | 451 kts | 33° |
| 2026-04-28 17:15 | 42.13730 | 8.85934 | 33192 ft | 453 kts | 33° |
| 2026-04-28 17:15 | 42.16305 | 8.88409 | 32468 ft | 455 kts | 33° |
| 2026-04-28 17:15 | 42.18851 | 8.90860 | 31771 ft | 456 kts | 33° |
| 2026-04-28 17:16 | 42.21434 | 8.93348 | 31105 ft | 457 kts | 33° |
| 2026-04-28 17:16 | 42.24010 | 8.95833 | 30481 ft | 455 kts | 33° |
| 2026-04-28 17:16 | 42.26594 | 8.98326 | 29667 ft | 457 kts | 33° |
| 2026-04-28 17:16 | 42.29186 | 9.00830 | 28830 ft | 458 kts | 33° |
| 2026-04-28 17:17 | 42.31759 | 9.03319 | 28256 ft | 453 kts | 33° |
| 2026-04-28 17:17 | 42.34314 | 9.05794 | 27637 ft | 450 kts | 33° |
| 2026-04-28 17:17 | 42.36844 | 9.08248 | 27044 ft | 446 kts | 34° |
| 2026-04-28 17:17 | 42.39357 | 9.10687 | 26460 ft | 443 kts | 34° |
| 2026-04-28 17:18 | 42.41853 | 9.13111 | 25891 ft | 440 kts | 34° |
| 2026-04-28 17:18 | 42.44331 | 9.15521 | 25307 ft | 437 kts | 34° |
| 2026-04-28 17:18 | 42.46795 | 9.17920 | 24743 ft | 435 kts | 34° |
| 2026-04-28 17:18 | 42.49249 | 9.20309 | 24158 ft | 434 kts | 34° |
| 2026-04-28 17:19 | 42.51695 | 9.22694 | 23565 ft | 433 kts | 34° |
| 2026-04-28 17:19 | 42.54135 | 9.25076 | 22899 ft | 431 kts | 34° |
| 2026-04-28 17:19 | 42.56562 | 9.27448 | 22297 ft | 428 kts | 34° |
| 2026-04-28 17:19 | 42.58966 | 9.29800 | 21704 ft | 424 kts | 34° |
| 2026-04-28 17:20 | 42.61352 | 9.32136 | 21138 ft | 421 kts | 34° |
| 2026-04-28 17:20 | 42.62919 | 9.33671 | 20760 ft | 419 kts | 34° |
| 2026-04-28 17:20 | 42.66041 | 9.36732 | 19917 ft | 418 kts | 34° |
| 2026-04-28 17:20 | 42.68393 | 9.39042 | 19318 ft | 416 kts | 34° |
| 2026-04-28 17:21 | 42.70732 | 9.41338 | 18730 ft | 414 kts | 34° |
| 2026-04-28 17:21 | 42.73054 | 9.43620 | 18166 ft | 411 kts | 34° |
| 2026-04-28 17:21 | 42.75372 | 9.45906 | 17534 ft | 408 kts | 35° |
| 2026-04-28 17:22 | 42.79926 | 9.50397 | 16396 ft | 401 kts | 35° |
| 2026-04-28 17:22 | 42.82173 | 9.52615 | 15851 ft | 397 kts | 35° |
| 2026-04-28 17:22 | 42.84400 | 9.54816 | 15316 ft | 394 kts | 35° |
| 2026-04-28 17:23 | 42.88772 | 9.59141 | 14256 ft | 388 kts | 35° |
| 2026-04-28 17:23 | 42.90956 | 9.61305 | 13641 ft | 388 kts | 36° |
| 2026-04-28 17:23 | 42.93130 | 9.63461 | 13049 ft | 385 kts | 36° |
| 2026-04-28 17:23 | 42.95288 | 9.65604 | 12500 ft | 381 kts | 36° |
| 2026-04-28 17:24 | 42.97425 | 9.67727 | 11960 ft | 378 kts | 36° |
| 2026-04-28 17:24 | 42.99538 | 9.69829 | 11440 ft | 375 kts | 36° |
| 2026-04-28 17:24 | 43.01639 | 9.71920 | 10919 ft | 372 kts | 36° |
| 2026-04-28 17:24 | 43.03706 | 9.73979 | 10653 ft | 361 kts | 36° |
| 2026-04-28 17:25 | 43.05702 | 9.75968 | 10480 ft | 349 kts | 36° |
| 2026-04-28 17:25 | 43.09496 | 9.79753 | 10186 ft | 326 kts | 36° |
| 2026-04-28 17:25 | 43.11298 | 9.81554 | 10048 ft | 316 kts | 37° |
| 2026-04-28 17:26 | 43.13047 | 9.83302 | 9945 ft | 305 kts | 37° |
| 2026-04-28 17:26 | 43.14628 | 9.84885 | 9538 ft | 305 kts | 36° |
| 2026-04-28 17:26 | 43.16274 | 9.86534 | 9579 ft | 280 kts | 37° |
| 2026-04-28 17:26 | 43.17773 | 9.88035 | 9658 ft | 251 kts | 37° |
| 2026-04-28 17:27 | 43.19139 | 9.89405 | 9393 ft | 239 kts | 37° |
| 2026-04-28 17:27 | 43.20533 | 9.90804 | 8505 ft | 259 kts | 37° |
| 2026-04-28 17:27 | 43.22032 | 9.92310 | 8106 ft | 269 kts | 37° |
| 2026-04-28 17:27 | 43.23577 | 9.93863 | 7815 ft | 281 kts | 37° |
| 2026-04-28 17:28 | 43.25172 | 9.95467 | 7498 ft | 288 kts | 37° |
| 2026-04-28 17:28 | 43.28435 | 9.98750 | 6866 ft | 291 kts | 37° |
| 2026-04-28 17:28 | 43.30061 | 10.00387 | 6549 ft | 289 kts | 37° |
| 2026-04-28 17:29 | 43.31678 | 10.02017 | 6215 ft | 288 kts | 37° |
| 2026-04-28 17:29 | 43.33289 | 10.03640 | 5898 ft | 286 kts | 37° |
| 2026-04-28 17:29 | 43.34890 | 10.05257 | 5576 ft | 285 kts | 37° |
| 2026-04-28 17:30 | 43.38061 | 10.08460 | 4983 ft | 280 kts | 37° |
| 2026-04-28 17:30 | 43.41106 | 10.11538 | 4728 ft | 263 kts | 37° |
| 2026-04-28 17:30 | 43.42561 | 10.13012 | 4610 ft | 256 kts | 37° |
| 2026-04-28 17:31 | 43.43970 | 10.14439 | 4495 ft | 248 kts | 37° |
| 2026-04-28 17:31 | 43.46675 | 10.17091 | 4289 ft | 232 kts | 38° |
| 2026-04-28 17:32 | 43.49213 | 10.19697 | 3930 ft | 225 kts | 38° |
| 2026-04-28 17:32 | 43.50460 | 10.20980 | 3708 ft | 224 kts | 39° |
| 2026-04-28 17:32 | 43.51702 | 10.22257 | 3482 ft | 222 kts | 38° |
| 2026-04-28 17:32 | 43.52930 | 10.23520 | 3201 ft | 220 kts | 38° |
| 2026-04-28 17:33 | 43.54155 | 10.24779 | 2848 ft | 220 kts | 37° |
| 2026-04-28 17:33 | 43.55356 | 10.25979 | 2766 ft | 206 kts | 37° |
| 2026-04-28 17:33 | 43.56485 | 10.27110 | 2642 ft | 195 kts | 39° |
| 2026-04-28 17:33 | 43.57203 | 10.27848 | 2464 ft | 194 kts | 38° |
| 2026-04-28 17:34 | 43.58627 | 10.29325 | 2132 ft | 189 kts | 37° |
| 2026-04-28 17:34 | 43.59666 | 10.30403 | 1888 ft | 185 kts | 36° |
| 2026-04-28 17:34 | 43.60662 | 10.31435 | 1701 ft | 174 kts | 36° |
| 2026-04-28 17:34 | 43.61593 | 10.32401 | 1462 ft | 161 kts | 35° |
| 2026-04-28 17:35 | 43.62441 | 10.33289 | 1233 ft | 148 kts | 36° |
| 2026-04-28 17:35 | 43.63279 | 10.34160 | 1031 ft | 153 kts | 33° |
| 2026-04-28 17:35 | 43.64144 | 10.35050 | 893 ft | 159 kts | 35° |
| 2026-04-28 17:35 | 43.65034 | 10.35978 | 657 ft | 161 kts | 34° |
| 2026-04-28 17:36 | 43.65924 | 10.36883 | 430 ft | 156 kts | 36° |
| 2026-04-28 17:36 | 43.66766 | 10.37766 | 217 ft | 149 kts | 34° |
| 2026-04-28 17:36 | 43.67598 | 10.38622 | 27 ft | 147 kts | 34° |
| 2026-04-28 17:36 | 43.68349 | 10.39397 | 18 ft | 117 kts | 37° |
| 2026-04-28 17:37 | 43.68884 | 10.39947 | 19 ft | 75 kts | 36° |
| 2026-04-28 17:37 | 43.69152 | 10.40226 | 19 ft | 28 kts | 37° |
| 2026-04-28 17:37 | 43.69256 | 10.40304 | 19 ft | 12 kts | 357° |
| 2026-04-28 17:37 | 43.69319 | 10.40224 | 17 ft | 13 kts | 306° |
| 2026-04-28 17:38 | 43.69358 | 10.40120 | 22 ft | 12 kts | 253° |
| 2026-04-28 17:38 | 43.69292 | 10.40041 | 21 ft | 13 kts | 217° |
| 2026-04-28 17:38 | 43.69235 | 10.39945 | 22 ft | 13 kts | 282° |
| 2026-04-28 17:38 | 43.69327 | 10.39900 | 16 ft | 17 kts | 353° |
| 2026-04-28 17:39 | 43.69439 | 10.39878 | 15 ft | 13 kts | 338° |
| 2026-04-28 17:39 | 43.69489 | 10.39779 | 14 ft | 13 kts | 330° |
| 2026-04-28 17:39 | 43.69645 | 10.39783 | 16 ft | 6 kts | 312° |
| 2026-04-28 17:40 | 43.69656 | 10.39735 | 14 ft | 3 kts | 280° |
| 2026-04-28 17:40 | 43.69663 | 10.39717 | 15 ft | 2 kts | 310° |
| 2026-04-28 17:40 | 43.69674 | 10.39704 | 14 ft | 2 kts | 321° |
| 2026-04-28 17:40 | 43.69675 | 10.39703 | 14 ft | 0 kts | 321° |